sensor_id;sensor_type;location;lat;lon;timestamp;P1;durP1;ratioP1;P2;durP2;ratioP2
73747;SDS011;62056;52.130;5.428;2022-10-16T00:02:17;3.22;;;1.25;;
73747;SDS011;62056;52.130;5.428;2022-10-16T00:04:44;2.20;;;0.60;;
73747;SDS011;62056;52.130;5.428;2022-10-16T00:07:10;4.45;;;0.80;;
73747;SDS011;62056;52.130;5.428;2022-10-16T00:09:37;3.08;;;0.80;;
73747;SDS011;62056;52.130;5.428;2022-10-16T00:12:03;4.95;;;1.00;;
73747;SDS011;62056;52.130;5.428;2022-10-16T00:14:32;3.08;;;0.90;;
73747;SDS011;62056;52.130;5.428;2022-10-16T00:16:59;2.27;;;0.83;;
73747;SDS011;62056;52.130;5.428;2022-10-16T00:19:26;2.53;;;0.73;;
73747;SDS011;62056;52.130;5.428;2022-10-16T00:21:52;2.63;;;0.90;;
73747;SDS011;62056;52.130;5.428;2022-10-16T00:24:19;1.30;;;0.70;;
73747;SDS011;62056;52.130;5.428;2022-10-16T00:26:45;2.17;;;0.80;;
73747;SDS011;62056;52.130;5.428;2022-10-16T00:29:15;2.27;;;1.07;;
73747;SDS011;62056;52.130;5.428;2022-10-16T00:31:42;2.83;;;0.80;;
73747;SDS011;62056;52.130;5.428;2022-10-16T00:34:09;3.42;;;0.98;;
73747;SDS011;62056;52.130;5.428;2022-10-16T00:36:35;1.73;;;0.77;;
73747;SDS011;62056;52.130;5.428;2022-10-16T00:39:02;2.15;;;0.98;;
73747;SDS011;62056;52.130;5.428;2022-10-16T00:41:29;3.80;;;1.00;;
73747;SDS011;62056;52.130;5.428;2022-10-16T00:44:00;2.05;;;1.27;;
73747;SDS011;62056;52.130;5.428;2022-10-16T00:46:37;1.52;;;0.68;;
73747;SDS011;62056;52.130;5.428;2022-10-16T00:49:10;2.67;;;1.00;;
73747;SDS011;62056;52.130;5.428;2022-10-16T00:51:43;2.75;;;1.13;;
73747;SDS011;62056;52.130;5.428;2022-10-16T00:54:14;2.20;;;0.87;;
73747;SDS011;62056;52.130;5.428;2022-10-16T00:56:44;4.43;;;1.20;;
73747;SDS011;62056;52.130;5.428;2022-10-16T00:59:16;6.70;;;1.65;;
73747;SDS011;62056;52.130;5.428;2022-10-16T01:01:45;3.83;;;1.30;;
73747;SDS011;62056;52.130;5.428;2022-10-16T01:04:12;2.17;;;1.17;;
73747;SDS011;62056;52.130;5.428;2022-10-16T01:06:45;8.27;;;1.30;;
73747;SDS011;62056;52.130;5.428;2022-10-16T01:09:31;2.92;;;1.65;;
73747;SDS011;62056;52.130;5.428;2022-10-16T01:12:09;4.20;;;1.60;;
73747;SDS011;62056;52.130;5.428;2022-10-16T01:14:53;3.58;;;1.52;;
73747;SDS011;62056;52.130;5.428;2022-10-16T01:23:10;4.90;;;2.10;;
73747;SDS011;62056;52.130;5.428;2022-10-16T01:25:59;2.85;;;1.85;;
73747;SDS011;62056;52.130;5.428;2022-10-16T01:28:32;2.22;;;1.70;;
73747;SDS011;62056;52.130;5.428;2022-10-16T01:31:04;3.38;;;1.88;;
73747;SDS011;62056;52.130;5.428;2022-10-16T01:33:37;2.30;;;1.80;;
73747;SDS011;62056;52.130;5.428;2022-10-16T01:36:26;7.30;;;2.30;;
73747;SDS011;62056;52.130;5.428;2022-10-16T01:38:57;4.60;;;2.17;;
73747;SDS011;62056;52.130;5.428;2022-10-16T01:41:34;4.05;;;1.75;;
73747;SDS011;62056;52.130;5.428;2022-10-16T01:44:14;6.35;;;2.55;;
73747;SDS011;62056;52.130;5.428;2022-10-16T01:46:47;4.13;;;2.00;;
73747;SDS011;62056;52.130;5.428;2022-10-16T01:49:16;2.95;;;1.58;;
73747;SDS011;62056;52.130;5.428;2022-10-16T01:51:45;6.43;;;2.08;;
73747;SDS011;62056;52.130;5.428;2022-10-16T01:54:16;3.03;;;2.00;;
73747;SDS011;62056;52.130;5.428;2022-10-16T01:56:45;3.50;;;2.15;;
73747;SDS011;62056;52.130;5.428;2022-10-16T01:59:16;5.47;;;1.87;;
73747;SDS011;62056;52.130;5.428;2022-10-16T02:01:54;5.50;;;1.88;;
73747;SDS011;62056;52.130;5.428;2022-10-16T02:04:27;2.88;;;1.30;;
73747;SDS011;62056;52.130;5.428;2022-10-16T02:06:57;3.58;;;1.38;;
73747;SDS011;62056;52.130;5.428;2022-10-16T02:09:25;2.47;;;1.88;;
73747;SDS011;62056;52.130;5.428;2022-10-16T02:11:52;1.93;;;1.20;;
73747;SDS011;62056;52.130;5.428;2022-10-16T02:14:22;3.83;;;1.38;;
73747;SDS011;62056;52.130;5.428;2022-10-16T02:16:50;2.03;;;1.30;;
73747;SDS011;62056;52.130;5.428;2022-10-16T02:19:17;2.78;;;1.20;;
73747;SDS011;62056;52.130;5.428;2022-10-16T02:21:51;3.80;;;1.35;;
73747;SDS011;62056;52.130;5.428;2022-10-16T02:24:28;3.30;;;1.67;;
73747;SDS011;62056;52.130;5.428;2022-10-16T02:27:04;3.92;;;1.30;;
73747;SDS011;62056;52.130;5.428;2022-10-16T02:29:41;2.15;;;1.10;;
73747;SDS011;62056;52.130;5.428;2022-10-16T02:32:15;2.03;;;1.27;;
73747;SDS011;62056;52.130;5.428;2022-10-16T02:34:46;1.90;;;1.60;;
73747;SDS011;62056;52.130;5.428;2022-10-16T02:37:14;4.50;;;1.53;;
73747;SDS011;62056;52.130;5.428;2022-10-16T02:39:44;1.55;;;0.82;;
73747;SDS011;62056;52.130;5.428;2022-10-16T02:42:17;1.88;;;1.20;;
73747;SDS011;62056;52.130;5.428;2022-10-16T02:44:45;2.13;;;1.40;;
73747;SDS011;62056;52.130;5.428;2022-10-16T02:47:11;5.50;;;1.80;;
73747;SDS011;62056;52.130;5.428;2022-10-16T02:49:38;2.13;;;1.43;;
73747;SDS011;62056;52.130;5.428;2022-10-16T02:52:05;3.72;;;1.60;;
73747;SDS011;62056;52.130;5.428;2022-10-16T02:54:35;3.92;;;1.65;;
73747;SDS011;62056;52.130;5.428;2022-10-16T02:57:02;3.13;;;1.45;;
73747;SDS011;62056;52.130;5.428;2022-10-16T02:59:29;4.95;;;1.65;;
73747;SDS011;62056;52.130;5.428;2022-10-16T03:01:55;2.43;;;1.40;;
73747;SDS011;62056;52.130;5.428;2022-10-16T03:04:22;2.22;;;0.95;;
73747;SDS011;62056;52.130;5.428;2022-10-16T03:06:48;3.65;;;1.10;;
73747;SDS011;62056;52.130;5.428;2022-10-16T03:09:15;2.72;;;1.40;;
73747;SDS011;62056;52.130;5.428;2022-10-16T03:11:42;3.33;;;1.60;;
73747;SDS011;62056;52.130;5.428;2022-10-16T03:14:08;4.93;;;1.63;;
73747;SDS011;62056;52.130;5.428;2022-10-16T03:16:35;2.42;;;1.60;;
73747;SDS011;62056;52.130;5.428;2022-10-16T03:19:01;2.30;;;1.67;;
73747;SDS011;62056;52.130;5.428;2022-10-16T03:21:28;1.75;;;1.15;;
73747;SDS011;62056;52.130;5.428;2022-10-16T03:23:56;2.33;;;1.38;;
73747;SDS011;62056;52.130;5.428;2022-10-16T03:26:22;3.60;;;1.30;;
73747;SDS011;62056;52.130;5.428;2022-10-16T03:28:49;1.88;;;1.33;;
73747;SDS011;62056;52.130;5.428;2022-10-16T03:31:15;1.65;;;1.23;;
73747;SDS011;62056;52.130;5.428;2022-10-16T03:33:42;1.88;;;1.00;;
73747;SDS011;62056;52.130;5.428;2022-10-16T03:36:09;2.40;;;1.45;;
73747;SDS011;62056;52.130;5.428;2022-10-16T03:38:35;1.70;;;1.30;;
73747;SDS011;62056;52.130;5.428;2022-10-16T03:41:02;1.48;;;0.95;;
73747;SDS011;62056;52.130;5.428;2022-10-16T03:43:30;3.58;;;1.55;;
73747;SDS011;62056;52.130;5.428;2022-10-16T03:45:56;1.30;;;1.00;;
73747;SDS011;62056;52.130;5.428;2022-10-16T03:48:23;3.28;;;1.75;;
73747;SDS011;62056;52.130;5.428;2022-10-16T03:50:50;2.53;;;1.57;;
73747;SDS011;62056;52.130;5.428;2022-10-16T03:53:19;3.92;;;1.42;;
73747;SDS011;62056;52.130;5.428;2022-10-16T03:55:46;3.47;;;1.30;;
73747;SDS011;62056;52.130;5.428;2022-10-16T03:58:13;2.47;;;1.40;;
73747;SDS011;62056;52.130;5.428;2022-10-16T04:00:43;3.60;;;1.73;;
73747;SDS011;62056;52.130;5.428;2022-10-16T04:03:11;4.77;;;0.87;;
73747;SDS011;62056;52.130;5.428;2022-10-16T04:05:37;1.90;;;1.05;;
73747;SDS011;62056;52.130;5.428;2022-10-16T04:08:04;4.35;;;1.42;;
73747;SDS011;62056;52.130;5.428;2022-10-16T04:10:31;1.48;;;0.88;;
73747;SDS011;62056;52.130;5.428;2022-10-16T04:12:58;1.50;;;1.38;;
73747;SDS011;62056;52.130;5.428;2022-10-16T04:15:25;4.73;;;1.30;;
73747;SDS011;62056;52.130;5.428;2022-10-16T04:17:52;3.13;;;1.20;;
73747;SDS011;62056;52.130;5.428;2022-10-16T04:20:18;1.52;;;1.02;;
73747;SDS011;62056;52.130;5.428;2022-10-16T04:22:45;1.60;;;1.35;;
73747;SDS011;62056;52.130;5.428;2022-10-16T04:25:11;3.15;;;1.85;;
73747;SDS011;62056;52.130;5.428;2022-10-16T04:27:38;1.50;;;1.00;;
73747;SDS011;62056;52.130;5.428;2022-10-16T04:30:10;2.65;;;1.23;;
73747;SDS011;62056;52.130;5.428;2022-10-16T04:32:37;2.38;;;0.95;;
73747;SDS011;62056;52.130;5.428;2022-10-16T04:35:03;2.03;;;1.05;;
73747;SDS011;62056;52.130;5.428;2022-10-16T04:37:30;2.75;;;1.00;;
73747;SDS011;62056;52.130;5.428;2022-10-16T04:39:57;1.40;;;0.83;;
73747;SDS011;62056;52.130;5.428;2022-10-16T04:42:23;1.77;;;0.90;;
73747;SDS011;62056;52.130;5.428;2022-10-16T04:44:50;3.75;;;0.93;;
73747;SDS011;62056;52.130;5.428;2022-10-16T04:47:17;3.17;;;0.85;;
73747;SDS011;62056;52.130;5.428;2022-10-16T04:49:43;1.60;;;0.82;;
73747;SDS011;62056;52.130;5.428;2022-10-16T04:52:10;3.10;;;1.40;;
73747;SDS011;62056;52.130;5.428;2022-10-16T04:54:36;3.25;;;0.93;;
73747;SDS011;62056;52.130;5.428;2022-10-16T04:57:03;1.90;;;0.75;;
73747;SDS011;62056;52.130;5.428;2022-10-16T04:59:31;1.77;;;1.00;;
73747;SDS011;62056;52.130;5.428;2022-10-16T05:01:58;2.22;;;0.70;;
73747;SDS011;62056;52.130;5.428;2022-10-16T05:04:24;1.20;;;0.60;;
73747;SDS011;62056;52.130;5.428;2022-10-16T05:06:51;2.38;;;0.90;;
73747;SDS011;62056;52.130;5.428;2022-10-16T05:09:17;1.02;;;0.68;;
73747;SDS011;62056;52.130;5.428;2022-10-16T05:11:44;2.30;;;0.90;;
73747;SDS011;62056;52.130;5.428;2022-10-16T05:14:10;2.53;;;1.00;;
73747;SDS011;62056;52.130;5.428;2022-10-16T05:16:37;2.80;;;0.87;;
73747;SDS011;62056;52.130;5.428;2022-10-16T05:19:04;3.13;;;1.15;;
73747;SDS011;62056;52.130;5.428;2022-10-16T05:21:50;5.25;;;1.02;;
73747;SDS011;62056;52.130;5.428;2022-10-16T05:24:17;2.30;;;1.02;;
73747;SDS011;62056;52.130;5.428;2022-10-16T05:26:43;1.88;;;0.90;;
73747;SDS011;62056;52.130;5.428;2022-10-16T05:29:10;1.63;;;0.90;;
73747;SDS011;62056;52.130;5.428;2022-10-16T05:31:37;2.75;;;0.90;;
73747;SDS011;62056;52.130;5.428;2022-10-16T05:34:03;1.75;;;1.10;;
73747;SDS011;62056;52.130;5.428;2022-10-16T05:36:30;1.45;;;0.73;;
73747;SDS011;62056;52.130;5.428;2022-10-16T05:38:56;1.35;;;0.70;;
73747;SDS011;62056;52.130;5.428;2022-10-16T05:41:23;4.90;;;1.10;;
73747;SDS011;62056;52.130;5.428;2022-10-16T05:43:52;1.33;;;0.70;;
73747;SDS011;62056;52.130;5.428;2022-10-16T05:46:19;1.40;;;0.88;;
73747;SDS011;62056;52.130;5.428;2022-10-16T05:48:45;3.67;;;0.70;;
73747;SDS011;62056;52.130;5.428;2022-10-16T05:51:12;1.67;;;1.00;;
73747;SDS011;62056;52.130;5.428;2022-10-16T05:53:41;2.07;;;0.83;;
73747;SDS011;62056;52.130;5.428;2022-10-16T05:56:12;2.45;;;0.95;;
73747;SDS011;62056;52.130;5.428;2022-10-16T05:58:39;2.88;;;1.00;;
73747;SDS011;62056;52.130;5.428;2022-10-16T06:01:08;1.20;;;0.55;;
73747;SDS011;62056;52.130;5.428;2022-10-16T06:03:38;2.47;;;0.90;;
73747;SDS011;62056;52.130;5.428;2022-10-16T06:06:12;2.00;;;0.70;;
73747;SDS011;62056;52.130;5.428;2022-10-16T06:08:42;3.50;;;1.10;;
73747;SDS011;62056;52.130;5.428;2022-10-16T06:11:10;1.75;;;1.15;;
73747;SDS011;62056;52.130;5.428;2022-10-16T06:13:39;1.80;;;0.88;;
73747;SDS011;62056;52.130;5.428;2022-10-16T06:16:09;2.03;;;0.73;;
73747;SDS011;62056;52.130;5.428;2022-10-16T06:18:36;1.60;;;0.77;;
73747;SDS011;62056;52.130;5.428;2022-10-16T06:21:07;1.75;;;0.68;;
73747;SDS011;62056;52.130;5.428;2022-10-16T06:23:36;2.42;;;1.25;;
73747;SDS011;62056;52.130;5.428;2022-10-16T06:26:06;2.30;;;1.02;;
73747;SDS011;62056;52.130;5.428;2022-10-16T06:28:35;5.45;;;0.90;;
73747;SDS011;62056;52.130;5.428;2022-10-16T06:31:02;1.63;;;0.70;;
73747;SDS011;62056;52.130;5.428;2022-10-16T06:33:33;3.70;;;0.90;;
73747;SDS011;62056;52.130;5.428;2022-10-16T06:36:03;2.55;;;0.95;;
73747;SDS011;62056;52.130;5.428;2022-10-16T06:38:35;2.92;;;0.70;;
73747;SDS011;62056;52.130;5.428;2022-10-16T06:41:02;3.70;;;1.05;;
73747;SDS011;62056;52.130;5.428;2022-10-16T06:43:30;1.93;;;0.97;;
73747;SDS011;62056;52.130;5.428;2022-10-16T06:45:58;1.92;;;1.10;;
73747;SDS011;62056;52.130;5.428;2022-10-16T06:48:27;3.38;;;1.20;;
73747;SDS011;62056;52.130;5.428;2022-10-16T06:50:55;3.63;;;1.00;;
73747;SDS011;62056;52.130;5.428;2022-10-16T06:53:27;3.55;;;1.02;;
73747;SDS011;62056;52.130;5.428;2022-10-16T06:56:09;2.20;;;1.07;;
73747;SDS011;62056;52.130;5.428;2022-10-16T06:58:38;1.38;;;0.80;;
73747;SDS011;62056;52.130;5.428;2022-10-16T07:01:05;1.55;;;0.77;;
73747;SDS011;62056;52.130;5.428;2022-10-16T07:03:32;1.73;;;0.80;;
73747;SDS011;62056;52.130;5.428;2022-10-16T07:06:02;1.63;;;0.80;;
73747;SDS011;62056;52.130;5.428;2022-10-16T07:08:31;2.10;;;0.83;;
73747;SDS011;62056;52.130;5.428;2022-10-16T07:11:03;3.13;;;1.23;;
73747;SDS011;62056;52.130;5.428;2022-10-16T07:13:34;2.40;;;0.90;;
73747;SDS011;62056;52.130;5.428;2022-10-16T07:16:09;1.52;;;0.60;;
73747;SDS011;62056;52.130;5.428;2022-10-16T07:18:41;3.45;;;1.05;;
73747;SDS011;62056;52.130;5.428;2022-10-16T07:21:11;4.17;;;1.00;;
73747;SDS011;62056;52.130;5.428;2022-10-16T07:23:40;2.65;;;0.73;;
73747;SDS011;62056;52.130;5.428;2022-10-16T07:26:07;1.88;;;0.63;;
73747;SDS011;62056;52.130;5.428;2022-10-16T07:28:34;3.25;;;0.57;;
73747;SDS011;62056;52.130;5.428;2022-10-16T07:31:05;3.63;;;0.90;;
73747;SDS011;62056;52.130;5.428;2022-10-16T07:33:34;2.97;;;0.70;;
73747;SDS011;62056;52.130;5.428;2022-10-16T07:36:01;2.67;;;0.70;;
73747;SDS011;62056;52.130;5.428;2022-10-16T07:38:28;1.63;;;0.75;;
73747;SDS011;62056;52.130;5.428;2022-10-16T07:41:00;7.72;;;0.80;;
73747;SDS011;62056;52.130;5.428;2022-10-16T07:43:29;5.85;;;0.80;;
73747;SDS011;62056;52.130;5.428;2022-10-16T07:45:56;1.40;;;0.60;;
73747;SDS011;62056;52.130;5.428;2022-10-16T07:48:27;1.23;;;0.70;;
73747;SDS011;62056;52.130;5.428;2022-10-16T07:51:00;1.42;;;0.57;;
73747;SDS011;62056;52.130;5.428;2022-10-16T07:53:28;1.67;;;0.70;;
73747;SDS011;62056;52.130;5.428;2022-10-16T07:56:00;2.65;;;0.57;;
73747;SDS011;62056;52.130;5.428;2022-10-16T07:58:28;0.83;;;0.50;;
73747;SDS011;62056;52.130;5.428;2022-10-16T08:00:55;1.38;;;0.75;;
73747;SDS011;62056;52.130;5.428;2022-10-16T08:03:23;1.92;;;0.93;;
73747;SDS011;62056;52.130;5.428;2022-10-16T08:05:51;1.98;;;0.70;;
73747;SDS011;62056;52.130;5.428;2022-10-16T08:08:19;3.40;;;1.00;;
73747;SDS011;62056;52.130;5.428;2022-10-16T08:10:45;4.57;;;0.83;;
73747;SDS011;62056;52.130;5.428;2022-10-16T08:13:12;2.15;;;0.88;;
73747;SDS011;62056;52.130;5.428;2022-10-16T08:15:44;1.80;;;0.73;;
73747;SDS011;62056;52.130;5.428;2022-10-16T08:18:12;3.00;;;1.00;;
73747;SDS011;62056;52.130;5.428;2022-10-16T08:20:40;4.68;;;0.98;;
73747;SDS011;62056;52.130;5.428;2022-10-16T08:23:11;1.87;;;0.60;;
73747;SDS011;62056;52.130;5.428;2022-10-16T08:25:39;2.25;;;0.65;;
73747;SDS011;62056;52.130;5.428;2022-10-16T08:28:08;5.43;;;1.00;;
73747;SDS011;62056;52.130;5.428;2022-10-16T08:30:36;2.28;;;0.70;;
73747;SDS011;62056;52.130;5.428;2022-10-16T08:33:03;1.45;;;0.68;;
73747;SDS011;62056;52.130;5.428;2022-10-16T08:35:30;3.13;;;0.40;;
73747;SDS011;62056;52.130;5.428;2022-10-16T08:37:57;1.35;;;0.75;;
73747;SDS011;62056;52.130;5.428;2022-10-16T08:40:24;2.30;;;0.60;;
73747;SDS011;62056;52.130;5.428;2022-10-16T08:48:36;2.93;;;0.60;;
73747;SDS011;62056;52.130;5.428;2022-10-16T08:51:24;3.05;;;0.70;;
73747;SDS011;62056;52.130;5.428;2022-10-16T08:53:55;3.78;;;0.95;;
73747;SDS011;62056;52.130;5.428;2022-10-16T08:56:24;3.00;;;1.17;;
73747;SDS011;62056;52.130;5.428;2022-10-16T08:58:52;4.82;;;0.82;;
73747;SDS011;62056;52.130;5.428;2022-10-16T09:01:35;2.60;;;0.97;;
73747;SDS011;62056;52.130;5.428;2022-10-16T09:04:22;2.40;;;0.80;;
73747;SDS011;62056;52.130;5.428;2022-10-16T09:12:32;5.05;;;0.85;;
73747;SDS011;62056;52.130;5.428;2022-10-16T09:21:23;2.83;;;0.80;;
73747;SDS011;62056;52.130;5.428;2022-10-16T09:24:13;3.10;;;0.80;;
73747;SDS011;62056;52.130;5.428;2022-10-16T09:26:43;4.85;;;0.80;;
73747;SDS011;62056;52.130;5.428;2022-10-16T09:29:13;2.90;;;0.70;;
73747;SDS011;62056;52.130;5.428;2022-10-16T09:31:41;3.28;;;1.20;;
73747;SDS011;62056;52.130;5.428;2022-10-16T09:34:20;2.15;;;0.82;;
73747;SDS011;62056;52.130;5.428;2022-10-16T09:36:57;2.53;;;0.70;;
73747;SDS011;62056;52.130;5.428;2022-10-16T09:39:25;5.10;;;0.80;;
73747;SDS011;62056;52.130;5.428;2022-10-16T09:41:52;4.77;;;0.80;;
73747;SDS011;62056;52.130;5.428;2022-10-16T09:44:27;3.35;;;0.80;;
73747;SDS011;62056;52.130;5.428;2022-10-16T09:47:10;4.32;;;0.73;;
73747;SDS011;62056;52.130;5.428;2022-10-16T09:49:50;6.32;;;0.80;;
73747;SDS011;62056;52.130;5.428;2022-10-16T09:52:18;4.85;;;0.93;;
73747;SDS011;62056;52.130;5.428;2022-10-16T09:54:56;3.27;;;0.70;;
73747;SDS011;62056;52.130;5.428;2022-10-16T09:57:26;9.85;;;1.20;;
73747;SDS011;62056;52.130;5.428;2022-10-16T09:59:55;4.43;;;1.30;;
73747;SDS011;62056;52.130;5.428;2022-10-16T10:02:30;5.47;;;0.95;;
73747;SDS011;62056;52.130;5.428;2022-10-16T10:05:00;2.95;;;0.80;;
73747;SDS011;62056;52.130;5.428;2022-10-16T10:07:30;5.60;;;1.30;;
73747;SDS011;62056;52.130;5.428;2022-10-16T10:10:00;4.03;;;0.90;;
73747;SDS011;62056;52.130;5.428;2022-10-16T10:12:30;7.60;;;1.20;;
73747;SDS011;62056;52.130;5.428;2022-10-16T10:15:13;7.55;;;1.00;;
73747;SDS011;62056;52.130;5.428;2022-10-16T10:17:51;3.75;;;1.00;;
73747;SDS011;62056;52.130;5.428;2022-10-16T10:25:53;5.63;;;1.58;;
73747;SDS011;62056;52.130;5.428;2022-10-16T10:28:46;5.30;;;1.00;;
73747;SDS011;62056;52.130;5.428;2022-10-16T10:31:49;16.00;;;1.80;;
73747;SDS011;62056;52.130;5.428;2022-10-16T10:37:11;6.82;;;1.33;;
73747;SDS011;62056;52.130;5.428;2022-10-16T10:40:04;7.75;;;1.23;;
73747;SDS011;62056;52.130;5.428;2022-10-16T10:45:51;4.07;;;0.68;;
73747;SDS011;62056;52.130;5.428;2022-10-16T10:51:10;5.95;;;0.80;;
73747;SDS011;62056;52.130;5.428;2022-10-16T10:53:56;9.27;;;1.00;;
73747;SDS011;62056;52.130;5.428;2022-10-16T10:56:49;8.32;;;1.50;;
73747;SDS011;62056;52.130;5.428;2022-10-16T10:59:28;6.25;;;1.50;;
73747;SDS011;62056;52.130;5.428;2022-10-16T11:02:48;7.37;;;0.90;;
73747;SDS011;62056;52.130;5.428;2022-10-16T11:05:44;3.78;;;1.00;;
73747;SDS011;62056;52.130;5.428;2022-10-16T11:08:17;7.57;;;1.30;;
73747;SDS011;62056;52.130;5.428;2022-10-16T11:13:26;6.65;;;1.40;;
73747;SDS011;62056;52.130;5.428;2022-10-16T11:15:59;7.73;;;1.13;;
73747;SDS011;62056;52.130;5.428;2022-10-16T11:18:44;5.97;;;1.00;;
73747;SDS011;62056;52.130;5.428;2022-10-16T11:21:17;4.43;;;1.15;;
73747;SDS011;62056;52.130;5.428;2022-10-16T11:23:57;3.00;;;1.00;;
73747;SDS011;62056;52.130;5.428;2022-10-16T11:26:28;6.78;;;1.38;;
73747;SDS011;62056;52.130;5.428;2022-10-16T11:28:59;7.93;;;1.50;;
73747;SDS011;62056;52.130;5.428;2022-10-16T11:34:29;4.30;;;1.00;;
73747;SDS011;62056;52.130;5.428;2022-10-16T11:39:54;5.97;;;1.15;;
73747;SDS011;62056;52.130;5.428;2022-10-16T11:42:30;6.20;;;1.37;;
73747;SDS011;62056;52.130;5.428;2022-10-16T11:48:02;5.65;;;1.30;;
73747;SDS011;62056;52.130;5.428;2022-10-16T11:50:46;5.28;;;1.20;;
73747;SDS011;62056;52.130;5.428;2022-10-16T11:53:33;3.13;;;0.80;;
73747;SDS011;62056;52.130;5.428;2022-10-16T11:56:13;7.57;;;1.47;;
73747;SDS011;62056;52.130;5.428;2022-10-16T11:58:50;6.32;;;0.80;;
73747;SDS011;62056;52.130;5.428;2022-10-16T12:01:46;6.55;;;0.82;;
73747;SDS011;62056;52.130;5.428;2022-10-16T12:04:26;6.70;;;0.80;;
73747;SDS011;62056;52.130;5.428;2022-10-16T12:07:15;4.72;;;1.05;;
73747;SDS011;62056;52.130;5.428;2022-10-16T12:09:48;5.10;;;1.30;;
73747;SDS011;62056;52.130;5.428;2022-10-16T12:12:28;4.22;;;0.80;;
73747;SDS011;62056;52.130;5.428;2022-10-16T12:18:20;7.25;;;1.10;;
73747;SDS011;62056;52.130;5.428;2022-10-16T12:20:57;6.18;;;1.10;;
73747;SDS011;62056;52.130;5.428;2022-10-16T12:23:30;5.13;;;1.10;;
73747;SDS011;62056;52.130;5.428;2022-10-16T12:25:59;2.70;;;0.90;;
73747;SDS011;62056;52.130;5.428;2022-10-16T12:28:29;5.20;;;0.90;;
73747;SDS011;62056;52.130;5.428;2022-10-16T12:30:59;7.20;;;1.20;;
73747;SDS011;62056;52.130;5.428;2022-10-16T12:33:29;6.10;;;1.20;;
73747;SDS011;62056;52.130;5.428;2022-10-16T12:35:59;6.33;;;0.93;;
73747;SDS011;62056;52.130;5.428;2022-10-16T12:38:30;2.78;;;0.88;;
73747;SDS011;62056;52.130;5.428;2022-10-16T12:43:38;8.50;;;1.20;;
73747;SDS011;62056;52.130;5.428;2022-10-16T12:48:35;5.87;;;1.13;;
73747;SDS011;62056;52.130;5.428;2022-10-16T12:51:25;4.78;;;1.20;;
73747;SDS011;62056;52.130;5.428;2022-10-16T12:53:58;4.80;;;1.13;;
73747;SDS011;62056;52.130;5.428;2022-10-16T12:56:28;5.95;;;1.23;;
73747;SDS011;62056;52.130;5.428;2022-10-16T13:02:34;7.53;;;0.87;;
73747;SDS011;62056;52.130;5.428;2022-10-16T13:05:22;6.45;;;0.90;;
73747;SDS011;62056;52.130;5.428;2022-10-16T13:08:03;5.28;;;0.90;;
73747;SDS011;62056;52.130;5.428;2022-10-16T13:10:56;4.68;;;0.80;;
73747;SDS011;62056;52.130;5.428;2022-10-16T13:13:44;4.25;;;0.98;;
73747;SDS011;62056;52.130;5.428;2022-10-16T13:16:32;5.47;;;1.13;;
73747;SDS011;62056;52.130;5.428;2022-10-16T13:19:30;6.13;;;1.00;;
73747;SDS011;62056;52.130;5.428;2022-10-16T13:22:20;4.93;;;1.10;;
73747;SDS011;62056;52.130;5.428;2022-10-16T13:25:18;8.48;;;1.38;;
73747;SDS011;62056;52.130;5.428;2022-10-16T13:30:24;7.93;;;1.43;;
73747;SDS011;62056;52.130;5.428;2022-10-16T13:33:01;5.93;;;1.17;;
73747;SDS011;62056;52.130;5.428;2022-10-16T13:35:33;4.47;;;1.02;;
73747;SDS011;62056;52.130;5.428;2022-10-16T13:41:02;4.68;;;0.70;;
73747;SDS011;62056;52.130;5.428;2022-10-16T13:43:41;6.27;;;1.27;;
73747;SDS011;62056;52.130;5.428;2022-10-16T13:46:12;7.28;;;1.10;;
73747;SDS011;62056;52.130;5.428;2022-10-16T13:48:40;7.95;;;0.80;;
73747;SDS011;62056;52.130;5.428;2022-10-16T13:51:15;4.40;;;1.00;;
73747;SDS011;62056;52.130;5.428;2022-10-16T13:53:43;3.25;;;0.82;;
73747;SDS011;62056;52.130;5.428;2022-10-16T13:56:13;9.03;;;1.23;;
73747;SDS011;62056;52.130;5.428;2022-10-16T13:58:42;3.17;;;0.70;;
73747;SDS011;62056;52.130;5.428;2022-10-16T14:01:16;6.55;;;1.17;;
73747;SDS011;62056;52.130;5.428;2022-10-16T14:03:45;4.00;;;0.93;;
73747;SDS011;62056;52.130;5.428;2022-10-16T14:06:14;4.95;;;0.80;;
73747;SDS011;62056;52.130;5.428;2022-10-16T14:08:44;8.07;;;1.23;;
73747;SDS011;62056;52.130;5.428;2022-10-16T14:11:20;4.53;;;0.88;;
73747;SDS011;62056;52.130;5.428;2022-10-16T14:13:50;5.25;;;0.95;;
73747;SDS011;62056;52.130;5.428;2022-10-16T14:16:27;5.47;;;0.90;;
73747;SDS011;62056;52.130;5.428;2022-10-16T14:19:00;2.22;;;0.80;;
73747;SDS011;62056;52.130;5.428;2022-10-16T14:21:30;7.37;;;1.10;;
73747;SDS011;62056;52.130;5.428;2022-10-16T14:23:58;3.45;;;0.90;;
73747;SDS011;62056;52.130;5.428;2022-10-16T14:26:27;5.40;;;1.25;;
73747;SDS011;62056;52.130;5.428;2022-10-16T14:29:02;2.72;;;0.90;;
73747;SDS011;62056;52.130;5.428;2022-10-16T14:31:37;8.40;;;1.00;;
73747;SDS011;62056;52.130;5.428;2022-10-16T14:34:03;8.67;;;1.33;;
73747;SDS011;62056;52.130;5.428;2022-10-16T14:36:31;6.35;;;1.00;;
73747;SDS011;62056;52.130;5.428;2022-10-16T14:39:01;3.53;;;0.73;;
73747;SDS011;62056;52.130;5.428;2022-10-16T14:41:32;4.63;;;0.88;;
73747;SDS011;62056;52.130;5.428;2022-10-16T14:44:09;8.10;;;1.52;;
73747;SDS011;62056;52.130;5.428;2022-10-16T14:46:38;4.37;;;0.77;;
73747;SDS011;62056;52.130;5.428;2022-10-16T14:51:37;5.80;;;1.08;;
73747;SDS011;62056;52.130;5.428;2022-10-16T14:54:10;6.93;;;1.23;;
73747;SDS011;62056;52.130;5.428;2022-10-16T14:59:19;4.50;;;0.80;;
73747;SDS011;62056;52.130;5.428;2022-10-16T15:01:53;10.00;;;1.10;;
73747;SDS011;62056;52.130;5.428;2022-10-16T15:04:20;7.82;;;1.48;;
73747;SDS011;62056;52.130;5.428;2022-10-16T15:06:47;6.70;;;1.08;;
73747;SDS011;62056;52.130;5.428;2022-10-16T15:09:14;6.78;;;1.20;;
73747;SDS011;62056;52.130;5.428;2022-10-16T15:11:41;4.33;;;1.10;;
73747;SDS011;62056;52.130;5.428;2022-10-16T15:14:10;8.52;;;1.05;;
73747;SDS011;62056;52.130;5.428;2022-10-16T15:16:40;8.63;;;1.48;;
73747;SDS011;62056;52.130;5.428;2022-10-16T15:19:07;4.65;;;1.45;;
73747;SDS011;62056;52.130;5.428;2022-10-16T15:21:34;6.05;;;1.63;;
73747;SDS011;62056;52.130;5.428;2022-10-16T15:24:00;9.07;;;1.63;;
73747;SDS011;62056;52.130;5.428;2022-10-16T15:26:34;7.45;;;1.48;;
73747;SDS011;62056;52.130;5.428;2022-10-16T15:29:01;4.60;;;1.60;;
73747;SDS011;62056;52.130;5.428;2022-10-16T15:31:27;6.22;;;1.17;;
73747;SDS011;62056;52.130;5.428;2022-10-16T15:33:54;3.97;;;1.08;;
73747;SDS011;62056;52.130;5.428;2022-10-16T15:36:25;2.60;;;1.03;;
73747;SDS011;62056;52.130;5.428;2022-10-16T15:38:54;4.47;;;1.23;;
73747;SDS011;62056;52.130;5.428;2022-10-16T15:41:21;5.82;;;1.50;;
73747;SDS011;62056;52.130;5.428;2022-10-16T15:43:48;7.97;;;1.15;;
73747;SDS011;62056;52.130;5.428;2022-10-16T15:46:20;7.28;;;1.60;;
73747;SDS011;62056;52.130;5.428;2022-10-16T15:48:48;8.20;;;1.60;;
73747;SDS011;62056;52.130;5.428;2022-10-16T15:51:16;10.65;;;2.03;;
73747;SDS011;62056;52.130;5.428;2022-10-16T15:53:44;5.80;;;1.52;;
73747;SDS011;62056;52.130;5.428;2022-10-16T15:56:13;6.03;;;1.58;;
73747;SDS011;62056;52.130;5.428;2022-10-16T15:58:40;3.22;;;1.40;;
73747;SDS011;62056;52.130;5.428;2022-10-16T16:01:06;4.83;;;1.70;;
73747;SDS011;62056;52.130;5.428;2022-10-16T16:03:36;8.55;;;1.98;;
73747;SDS011;62056;52.130;5.428;2022-10-16T16:06:06;4.60;;;1.27;;
73747;SDS011;62056;52.130;5.428;2022-10-16T16:08:35;6.15;;;1.48;;
73747;SDS011;62056;52.130;5.428;2022-10-16T16:11:10;17.00;;;2.83;;
73747;SDS011;62056;52.130;5.428;2022-10-16T16:13:39;5.80;;;1.70;;
73747;SDS011;62056;52.130;5.428;2022-10-16T16:16:08;6.93;;;1.83;;
73747;SDS011;62056;52.130;5.428;2022-10-16T16:18:37;5.63;;;2.08;;
73747;SDS011;62056;52.130;5.428;2022-10-16T16:21:04;8.90;;;2.53;;
73747;SDS011;62056;52.130;5.428;2022-10-16T16:23:31;9.48;;;2.15;;
73747;SDS011;62056;52.130;5.428;2022-10-16T16:28:39;5.70;;;2.90;;